sensor_id;sensor_type;location;lat;lon;timestamp;pressure;altitude;pressure_sealevel;temperature;humidity
71917;BME280;59793;46.506;6.674;2023-05-25T00:00:51;96994.63;;;13.91;67.12
71917;BME280;59793;46.506;6.674;2023-05-25T00:03:16;96953.09;;;13.61;67.05
71917;BME280;59793;46.506;6.674;2023-05-25T00:05:41;96997.25;;;13.91;66.52
71917;BME280;59793;46.506;6.674;2023-05-25T00:08:07;97003.34;;;13.95;66.23
71917;BME280;59793;46.506;6.674;2023-05-25T00:10:32;97031.03;;;14.01;66.28
71917;BME280;59793;46.506;6.674;2023-05-25T00:12:58;96973.22;;;13.69;65.83
71917;BME280;59793;46.506;6.674;2023-05-25T00:15:23;96997.59;;;13.85;65.33
71917;BME280;59793;46.506;6.674;2023-05-25T00:17:48;96995.25;;;13.80;65.76
71917;BME280;59793;46.506;6.674;2023-05-25T00:20:14;96938.13;;;13.42;66.08
71917;BME280;59793;46.506;6.674;2023-05-25T00:22:42;96986.78;;;13.64;65.52
71917;BME280;59793;46.506;6.674;2023-05-25T00:25:09;97012.88;;;13.99;65.49
71917;BME280;59793;46.506;6.674;2023-05-25T00:27:35;96928.28;;;13.43;65.37
71917;BME280;59793;46.506;6.674;2023-05-25T00:30:00;97010.44;;;13.83;65.47
71917;BME280;59793;46.506;6.674;2023-05-25T00:32:26;96976.59;;;13.66;65.30
71917;BME280;59793;46.506;6.674;2023-05-25T00:34:52;97008.88;;;13.79;65.59
71917;BME280;59793;46.506;6.674;2023-05-25T00:37:18;97003.63;;;13.82;65.09
71917;BME280;59793;46.506;6.674;2023-05-25T00:39:43;96966.31;;;13.61;65.25
71917;BME280;59793;46.506;6.674;2023-05-25T00:42:09;96991.41;;;13.74;65.37
71917;BME280;59793;46.506;6.674;2023-05-25T00:44:34;96985.25;;;13.63;65.10
71917;BME280;59793;46.506;6.674;2023-05-25T00:47:00;96920.56;;;13.27;65.75
71917;BME280;59793;46.506;6.674;2023-05-25T00:49:30;96942.47;;;13.24;65.73
71917;BME280;59793;46.506;6.674;2023-05-25T00:51:57;96990.88;;;13.58;66.20
71917;BME280;59793;46.506;6.674;2023-05-25T00:54:22;96985.56;;;13.58;65.48
71917;BME280;59793;46.506;6.674;2023-05-25T00:57:07;96989.81;;;13.66;65.67
71917;BME280;59793;46.506;6.674;2023-05-25T00:59:47;96956.34;;;13.47;65.47
71917;BME280;59793;46.506;6.674;2023-05-25T01:02:13;96984.06;;;13.57;65.49
71917;BME280;59793;46.506;6.674;2023-05-25T01:04:43;96932.88;;;13.15;65.22
71917;BME280;59793;46.506;6.674;2023-05-25T01:07:10;97003.19;;;13.43;65.97
71917;BME280;59793;46.506;6.674;2023-05-25T01:09:40;96938.81;;;13.05;66.17
71917;BME280;59793;46.506;6.674;2023-05-25T01:12:08;96996.69;;;13.37;66.18
71917;BME280;59793;46.506;6.674;2023-05-25T01:14:37;96994.88;;;13.45;65.88
71917;BME280;59793;46.506;6.674;2023-05-25T01:17:03;96954.25;;;13.03;66.40
71917;BME280;59793;46.506;6.674;2023-05-25T01:19:31;96997.66;;;13.25;66.77
71917;BME280;59793;46.506;6.674;2023-05-25T01:22:09;97000.03;;;13.34;66.53
71917;BME280;59793;46.506;6.674;2023-05-25T01:24:39;96986.13;;;13.14;67.29
71917;BME280;59793;46.506;6.674;2023-05-25T01:27:24;96906.63;;;12.70;66.84
71917;BME280;59793;46.506;6.674;2023-05-25T01:29:52;97000.69;;;13.27;67.19
71917;BME280;59793;46.506;6.674;2023-05-25T01:32:18;96990.63;;;13.10;67.40
71917;BME280;59793;46.506;6.674;2023-05-25T01:34:45;96965.34;;;12.86;67.77
71917;BME280;59793;46.506;6.674;2023-05-25T01:37:12;97017.59;;;13.19;67.67
71917;BME280;59793;46.506;6.674;2023-05-25T01:39:40;96950.25;;;12.83;67.58
71917;BME280;59793;46.506;6.674;2023-05-25T01:42:06;96988.34;;;13.08;67.81
71917;BME280;59793;46.506;6.674;2023-05-25T01:44:32;96958.22;;;12.86;67.96
71917;BME280;59793;46.506;6.674;2023-05-25T01:47:13;97005.03;;;13.12;68.45
71917;BME280;59793;46.506;6.674;2023-05-25T01:52:25;97017.16;;;13.17;68.29
71917;BME280;59793;46.506;6.674;2023-05-25T01:54:58;96939.84;;;12.71;68.27
71917;BME280;59793;46.506;6.674;2023-05-25T01:57:25;97000.97;;;13.19;68.15
71917;BME280;59793;46.506;6.674;2023-05-25T01:59:54;96983.81;;;13.09;68.02
71917;BME280;59793;46.506;6.674;2023-05-25T02:02:24;96954.44;;;12.87;67.87
71917;BME280;59793;46.506;6.674;2023-05-25T02:04:52;97015.09;;;13.30;67.96
71917;BME280;59793;46.506;6.674;2023-05-25T02:07:18;97008.25;;;13.25;68.11
71917;BME280;59793;46.506;6.674;2023-05-25T02:09:43;97018.94;;;13.32;68.66
71917;BME280;59793;46.506;6.674;2023-05-25T02:12:09;96989.66;;;13.22;67.59
71917;BME280;59793;46.506;6.674;2023-05-25T02:14:34;97018.22;;;13.39;67.29
71917;BME280;59793;46.506;6.674;2023-05-25T02:17:00;96996.25;;;13.35;67.32
71917;BME280;59793;46.506;6.674;2023-05-25T02:19:26;96953.50;;;13.03;67.57
71917;BME280;59793;46.506;6.674;2023-05-25T02:21:52;97004.19;;;13.35;67.71
71917;BME280;59793;46.506;6.674;2023-05-25T02:24:18;96933.28;;;12.87;67.98
71917;BME280;59793;46.506;6.674;2023-05-25T02:26:43;96931.31;;;12.81;67.92
71917;BME280;59793;46.506;6.674;2023-05-25T02:29:08;96982.38;;;13.15;67.92
71917;BME280;59793;46.506;6.674;2023-05-25T02:31:34;97004.75;;;13.21;68.25
71917;BME280;59793;46.506;6.674;2023-05-25T02:33:59;96947.22;;;12.84;67.63
71917;BME280;59793;46.506;6.674;2023-05-25T02:36:24;96990.38;;;13.19;67.75
71917;BME280;59793;46.506;6.674;2023-05-25T02:38:51;96986.03;;;13.07;68.17
71917;BME280;59793;46.506;6.674;2023-05-25T02:41:19;96999.94;;;13.27;67.72
71917;BME280;59793;46.506;6.674;2023-05-25T02:43:45;96994.84;;;13.14;67.62
71917;BME280;59793;46.506;6.674;2023-05-25T02:46:11;96975.47;;;13.07;67.79
71917;BME280;59793;46.506;6.674;2023-05-25T02:48:36;97006.72;;;13.24;67.96
71917;BME280;59793;46.506;6.674;2023-05-25T02:51:02;97001.75;;;13.23;67.79
71917;BME280;59793;46.506;6.674;2023-05-25T02:53:28;96996.88;;;13.25;67.64
71917;BME280;59793;46.506;6.674;2023-05-25T02:55:53;97001.88;;;13.30;67.71
71917;BME280;59793;46.506;6.674;2023-05-25T02:58:18;96970.34;;;13.21;66.77
71917;BME280;59793;46.506;6.674;2023-05-25T03:00:46;96936.91;;;13.06;66.52
71917;BME280;59793;46.506;6.674;2023-05-25T03:03:11;96989.91;;;13.39;66.46
71917;BME280;59793;46.506;6.674;2023-05-25T03:05:37;97008.50;;;13.47;66.08
71917;BME280;59793;46.506;6.674;2023-05-25T03:08:02;97002.31;;;13.35;66.46
71917;BME280;59793;46.506;6.674;2023-05-25T03:10:28;97015.25;;;13.41;66.54
71917;BME280;59793;46.506;6.674;2023-05-25T03:12:53;96996.41;;;13.19;66.97
71917;BME280;59793;46.506;6.674;2023-05-25T03:15:19;96955.66;;;12.94;66.58
71917;BME280;59793;46.506;6.674;2023-05-25T03:17:44;96990.72;;;13.17;66.88
71917;BME280;59793;46.506;6.674;2023-05-25T03:20:10;96992.16;;;13.11;66.67
71917;BME280;59793;46.506;6.674;2023-05-25T03:22:35;97001.63;;;13.12;66.34
71917;BME280;59793;46.506;6.674;2023-05-25T03:25:02;97034.91;;;13.39;66.40
71917;BME280;59793;46.506;6.674;2023-05-25T03:27:27;97007.38;;;13.21;66.61
71917;BME280;59793;46.506;6.674;2023-05-25T03:29:53;96980.38;;;13.05;66.46
71917;BME280;59793;46.506;6.674;2023-05-25T03:32:18;96991.53;;;13.21;66.17
71917;BME280;59793;46.506;6.674;2023-05-25T03:34:44;97001.00;;;13.22;66.51
71917;BME280;59793;46.506;6.674;2023-05-25T03:37:10;97030.28;;;13.33;66.52
71917;BME280;59793;46.506;6.674;2023-05-25T03:39:35;96966.63;;;12.96;66.26
71917;BME280;59793;46.506;6.674;2023-05-25T03:42:01;97030.84;;;13.49;65.79
71917;BME280;59793;46.506;6.674;2023-05-25T03:44:27;97008.84;;;13.15;66.24
71917;BME280;59793;46.506;6.674;2023-05-25T03:46:52;97028.06;;;13.38;66.19
71917;BME280;59793;46.506;6.674;2023-05-25T03:49:18;96987.63;;;13.11;66.30
71917;BME280;59793;46.506;6.674;2023-05-25T03:51:43;96969.19;;;12.88;66.54
71917;BME280;59793;46.506;6.674;2023-05-25T03:54:09;96955.53;;;12.83;66.13
71917;BME280;59793;46.506;6.674;2023-05-25T03:56:34;97017.97;;;13.21;66.79
71917;BME280;59793;46.506;6.674;2023-05-25T03:59:00;96972.25;;;12.90;66.27
71917;BME280;59793;46.506;6.674;2023-05-25T04:01:25;97016.31;;;13.09;66.38
71917;BME280;59793;46.506;6.674;2023-05-25T04:03:51;97005.88;;;13.20;66.00
71917;BME280;59793;46.506;6.674;2023-05-25T04:06:17;97011.28;;;13.27;65.39
71917;BME280;59793;46.506;6.674;2023-05-25T04:08:44;97036.38;;;13.37;65.43
71917;BME280;59793;46.506;6.674;2023-05-25T04:11:09;97021.53;;;13.29;65.67
71917;BME280;59793;46.506;6.674;2023-05-25T04:13:35;97021.41;;;13.22;65.89
71917;BME280;59793;46.506;6.674;2023-05-25T04:16:01;97033.22;;;13.28;65.62
71917;BME280;59793;46.506;6.674;2023-05-25T04:18:26;96983.16;;;12.89;66.45
71917;BME280;59793;46.506;6.674;2023-05-25T04:20:52;97060.56;;;13.39;66.20
71917;BME280;59793;46.506;6.674;2023-05-25T04:23:19;97055.97;;;13.32;66.05
71917;BME280;59793;46.506;6.674;2023-05-25T04:25:45;97060.53;;;13.35;65.97
71917;BME280;59793;46.506;6.674;2023-05-25T04:28:11;97052.34;;;13.44;65.55
71917;BME280;59793;46.506;6.674;2023-05-25T04:30:37;97064.72;;;13.36;66.21
71917;BME280;59793;46.506;6.674;2023-05-25T04:33:03;97060.91;;;13.34;65.62
71917;BME280;59793;46.506;6.674;2023-05-25T04:35:29;97061.09;;;13.22;66.18
71917;BME280;59793;46.506;6.674;2023-05-25T04:37:56;97029.06;;;13.04;66.32
71917;BME280;59793;46.506;6.674;2023-05-25T04:40:21;97020.31;;;13.00;65.83
71917;BME280;59793;46.506;6.674;2023-05-25T04:42:47;96982.97;;;12.75;66.20
71917;BME280;59793;46.506;6.674;2023-05-25T04:45:12;97067.00;;;13.38;65.55
71917;BME280;59793;46.506;6.674;2023-05-25T04:47:41;97050.03;;;13.16;66.38
71917;BME280;59793;46.506;6.674;2023-05-25T04:50:08;97010.06;;;12.95;65.97
71917;BME280;59793;46.506;6.674;2023-05-25T04:52:34;97083.63;;;13.38;65.51
71917;BME280;59793;46.506;6.674;2023-05-25T04:55:00;97079.94;;;13.43;65.90
71917;BME280;59793;46.506;6.674;2023-05-25T04:57:27;97075.78;;;13.46;65.02
71917;BME280;59793;46.506;6.674;2023-05-25T04:59:53;97062.78;;;13.33;64.94
71917;BME280;59793;46.506;6.674;2023-05-25T05:02:19;97094.09;;;13.58;64.66
71917;BME280;59793;46.506;6.674;2023-05-25T05:04:45;97107.53;;;13.72;63.67
71917;BME280;59793;46.506;6.674;2023-05-25T05:07:11;97114.97;;;13.63;64.27
71917;BME280;59793;46.506;6.674;2023-05-25T05:09:36;97116.19;;;13.69;63.83
71917;BME280;59793;46.506;6.674;2023-05-25T05:12:02;97105.41;;;13.55;65.10
71917;BME280;59793;46.506;6.674;2023-05-25T05:14:29;97069.50;;;13.27;64.72
71917;BME280;59793;46.506;6.674;2023-05-25T05:16:55;97085.88;;;13.36;63.36
71917;BME280;59793;46.506;6.674;2023-05-25T05:19:20;97086.53;;;13.30;64.05
71917;BME280;59793;46.506;6.674;2023-05-25T05:21:47;97132.81;;;13.70;63.15
71917;BME280;59793;46.506;6.674;2023-05-25T05:24:13;97148.00;;;13.73;63.34
71917;BME280;59793;46.506;6.674;2023-05-25T05:26:40;97154.66;;;13.63;64.72
71917;BME280;59793;46.506;6.674;2023-05-25T05:29:06;97106.31;;;13.13;64.88
71917;BME280;59793;46.506;6.674;2023-05-25T05:31:31;97154.47;;;13.49;65.43
71917;BME280;59793;46.506;6.674;2023-05-25T05:33:56;97102.13;;;13.12;66.73
71917;BME280;59793;46.506;6.674;2023-05-25T05:36:22;97150.91;;;13.37;66.53
71917;BME280;59793;46.506;6.674;2023-05-25T05:38:47;97157.50;;;13.47;66.76
71917;BME280;59793;46.506;6.674;2023-05-25T05:41:13;97154.78;;;13.44;68.13
71917;BME280;59793;46.506;6.674;2023-05-25T05:43:42;97186.56;;;13.44;68.96
71917;BME280;59793;46.506;6.674;2023-05-25T05:46:09;97124.59;;;12.99;68.53
71917;BME280;59793;46.506;6.674;2023-05-25T05:48:37;97191.19;;;13.50;67.71
71917;BME280;59793;46.506;6.674;2023-05-25T05:51:06;97170.31;;;13.45;67.96
71917;BME280;59793;46.506;6.674;2023-05-25T05:53:31;97165.59;;;13.35;68.62
71917;BME280;59793;46.506;6.674;2023-05-25T05:55:57;97145.88;;;13.06;70.69
71917;BME280;59793;46.506;6.674;2023-05-25T05:58:27;97194.56;;;13.24;70.76
71917;BME280;59793;46.506;6.674;2023-05-25T06:00:53;97185.91;;;13.27;70.83
71917;BME280;59793;46.506;6.674;2023-05-25T06:03:19;97195.34;;;13.51;70.44
71917;BME280;59793;46.506;6.674;2023-05-25T06:05:45;97176.50;;;13.56;70.61
71917;BME280;59793;46.506;6.674;2023-05-25T06:08:10;97205.13;;;13.74;69.92
71917;BME280;59793;46.506;6.674;2023-05-25T06:10:37;97176.47;;;13.53;70.32
71917;BME280;59793;46.506;6.674;2023-05-25T06:13:02;97125.56;;;13.13;70.05
71917;BME280;59793;46.506;6.674;2023-05-25T06:15:28;97215.16;;;13.61;69.76
71917;BME280;59793;46.506;6.674;2023-05-25T06:17:53;97221.16;;;13.58;71.57
71917;BME280;59793;46.506;6.674;2023-05-25T06:20:18;97196.72;;;13.42;71.05
71917;BME280;59793;46.506;6.674;2023-05-25T06:22:44;97213.50;;;13.53;71.70
71917;BME280;59793;46.506;6.674;2023-05-25T06:25:09;97212.97;;;13.67;71.27
71917;BME280;59793;46.506;6.674;2023-05-25T06:27:35;97228.94;;;13.74;71.47
71917;BME280;59793;46.506;6.674;2023-05-25T06:30:00;97198.34;;;13.50;73.33
71917;BME280;59793;46.506;6.674;2023-05-25T06:32:26;97200.28;;;13.53;70.83
71917;BME280;59793;46.506;6.674;2023-05-25T06:34:51;97231.47;;;13.90;71.45
71917;BME280;59793;46.506;6.674;2023-05-25T06:37:17;97206.09;;;13.62;69.78
71917;BME280;59793;46.506;6.674;2023-05-25T06:39:42;97216.47;;;13.48;70.94
71917;BME280;59793;46.506;6.674;2023-05-25T06:42:10;97224.09;;;13.53;70.65
71917;BME280;59793;46.506;6.674;2023-05-25T06:44:36;97208.53;;;13.48;71.91
71917;BME280;59793;46.506;6.674;2023-05-25T06:47:01;97221.16;;;13.58;72.18
71917;BME280;59793;46.506;6.674;2023-05-25T06:49:27;97204.69;;;13.68;69.98
71917;BME280;59793;46.506;6.674;2023-05-25T06:51:53;97237.56;;;13.94;71.84
71917;BME280;59793;46.506;6.674;2023-05-25T06:54:18;97228.69;;;14.09;70.84
71917;BME280;59793;46.506;6.674;2023-05-25T06:56:44;97180.25;;;13.78;71.55
71917;BME280;59793;46.506;6.674;2023-05-25T06:59:10;97203.56;;;14.29;70.09
71917;BME280;59793;46.506;6.674;2023-05-25T07:01:35;97234.19;;;14.91;69.44
71917;BME280;59793;46.506;6.674;2023-05-25T07:04:01;97173.56;;;14.52;69.09
71917;BME280;59793;46.506;6.674;2023-05-25T07:06:26;97201.06;;;15.15;67.09
71917;BME280;59793;46.506;6.674;2023-05-25T07:08:52;97240.19;;;15.66;66.85
71917;BME280;59793;46.506;6.674;2023-05-25T07:11:19;97240.13;;;15.62;67.89
71917;BME280;59793;46.506;6.674;2023-05-25T07:13:46;97146.41;;;15.06;68.69
71917;BME280;59793;46.506;6.674;2023-05-25T07:16:11;97224.31;;;15.76;66.87
71917;BME280;59793;46.506;6.674;2023-05-25T07:18:40;97252.63;;;16.13;64.96
71917;BME280;59793;46.506;6.674;2023-05-25T07:21:06;97213.63;;;15.66;66.49
71917;BME280;59793;46.506;6.674;2023-05-25T07:23:34;97202.19;;;15.65;65.68
71917;BME280;59793;46.506;6.674;2023-05-25T07:26:00;97224.47;;;16.01;62.60
71917;BME280;59793;46.506;6.674;2023-05-25T07:28:26;97240.47;;;16.12;63.14
71917;BME280;59793;46.506;6.674;2023-05-25T07:30:51;97266.47;;;16.51;63.74
71917;BME280;59793;46.506;6.674;2023-05-25T07:33:16;97238.41;;;16.61;65.74
71917;BME280;59793;46.506;6.674;2023-05-25T07:35:42;97246.53;;;17.04;60.51
71917;BME280;59793;46.506;6.674;2023-05-25T07:38:08;97263.28;;;17.26;60.15
71917;BME280;59793;46.506;6.674;2023-05-25T07:40:33;97272.03;;;17.37;63.91
71917;BME280;59793;46.506;6.674;2023-05-25T07:42:58;97275.84;;;17.50;61.87
71917;BME280;59793;46.506;6.674;2023-05-25T07:45:24;97268.22;;;17.31;57.98
71917;BME280;59793;46.506;6.674;2023-05-25T07:47:50;97273.56;;;17.59;57.38
71917;BME280;59793;46.506;6.674;2023-05-25T07:50:16;97224.84;;;17.44;57.31
71917;BME280;59793;46.506;6.674;2023-05-25T07:52:41;97262.16;;;17.55;61.42
71917;BME280;59793;46.506;6.674;2023-05-25T07:55:07;97288.59;;;16.69;62.75
71917;BME280;59793;46.506;6.674;2023-05-25T07:57:35;97225.94;;;15.95;65.77
71917;BME280;59793;46.506;6.674;2023-05-25T08:00:02;97290.75;;;15.80;64.84
71917;BME280;59793;46.506;6.674;2023-05-25T08:02:30;97282.94;;;15.13;66.21
71917;BME280;59793;46.506;6.674;2023-05-25T08:04:55;97273.59;;;14.55;68.06
71917;BME280;59793;46.506;6.674;2023-05-25T08:07:20;97303.63;;;14.66;69.19
71917;BME280;59793;46.506;6.674;2023-05-25T08:09:46;97272.81;;;14.85;68.98
71917;BME280;59793;46.506;6.674;2023-05-25T08:12:11;97267.22;;;14.97;67.81
71917;BME280;59793;46.506;6.674;2023-05-25T08:14:37;97297.66;;;14.73;68.31
71917;BME280;59793;46.506;6.674;2023-05-25T08:17:03;97273.03;;;14.42;67.84
71917;BME280;59793;46.506;6.674;2023-05-25T08:19:30;97297.75;;;14.80;67.06
71917;BME280;59793;46.506;6.674;2023-05-25T08:21:56;97306.53;;;15.21;66.38
71917;BME280;59793;46.506;6.674;2023-05-25T08:24:22;97310.00;;;15.29;65.88
71917;BME280;59793;46.506;6.674;2023-05-25T08:26:47;97307.09;;;15.04;65.75
71917;BME280;59793;46.506;6.674;2023-05-25T08:29:13;97275.25;;;15.04;65.58
71917;BME280;59793;46.506;6.674;2023-05-25T08:31:38;97257.16;;;14.76;66.17
71917;BME280;59793;46.506;6.674;2023-05-25T08:34:06;97311.94;;;14.95;66.06
71917;BME280;59793;46.506;6.674;2023-05-25T08:36:31;97256.31;;;14.68;64.93
71917;BME280;59793;46.506;6.674;2023-05-25T08:38:58;97266.78;;;15.28;66.95
71917;BME280;59793;46.506;6.674;2023-05-25T08:41:23;97275.84;;;15.68;63.44
71917;BME280;59793;46.506;6.674;2023-05-25T08:43:49;97311.63;;;15.82;63.84
71917;BME280;59793;46.506;6.674;2023-05-25T08:46:22;97294.31;;;15.98;62.42
71917;BME280;59793;46.506;6.674;2023-05-25T08:48:53;97324.66;;;16.60;62.12
71917;BME280;59793;46.506;6.674;2023-05-25T08:51:20;97306.56;;;16.17;61.56
71917;BME280;59793;46.506;6.674;2023-05-25T08:53:45;97295.09;;;16.02;61.52
71917;BME280;59793;46.506;6.674;2023-05-25T08:56:21;97321.81;;;15.72;64.08
71917;BME280;59793;46.506;6.674;2023-05-25T08:59:01;97312.31;;;15.71;62.80
71917;BME280;59793;46.506;6.674;2023-05-25T09:01:28;97343.00;;;16.13;62.38
71917;BME280;59793;46.506;6.674;2023-05-25T09:03:57;97352.59;;;15.77;63.62
71917;BME280;59793;46.506;6.674;2023-05-25T09:06:24;97349.28;;;15.91;62.11
71917;BME280;59793;46.506;6.674;2023-05-25T09:08:51;97350.50;;;16.00;60.72
71917;BME280;59793;46.506;6.674;2023-05-25T09:11:19;97322.84;;;15.64;60.52
71917;BME280;59793;46.506;6.674;2023-05-25T09:13:45;97364.31;;;16.20;61.67
71917;BME280;59793;46.506;6.674;2023-05-25T09:16:11;97337.22;;;16.66;59.67
71917;BME280;59793;46.506;6.674;2023-05-25T09:18:36;97365.28;;;16.57;59.55
71917;BME280;59793;46.506;6.674;2023-05-25T09:21:02;97323.38;;;15.77;60.64
71917;BME280;59793;46.506;6.674;2023-05-25T09:23:27;97335.25;;;15.90;61.78
71917;BME280;59793;46.506;6.674;2023-05-25T09:25:53;97320.69;;;15.73;62.91
71917;BME280;59793;46.506;6.674;2023-05-25T09:28:19;97370.34;;;16.17;62.79
71917;BME280;59793;46.506;6.674;2023-05-25T09:30:45;97337.97;;;16.67;62.17
71917;BME280;59793;46.506;6.674;2023-05-25T09:33:14;97374.34;;;17.14;61.35
71917;BME280;59793;46.506;6.674;2023-05-25T09:35:44;97361.09;;;17.43;60.92
71917;BME280;59793;46.506;6.674;2023-05-25T09:38:11;97358.53;;;16.70;61.58
71917;BME280;59793;46.506;6.674;2023-05-25T09:40:39;97310.88;;;16.40;63.38
71917;BME280;59793;46.506;6.674;2023-05-25T09:43:05;97345.06;;;16.38;63.61
71917;BME280;59793;46.506;6.674;2023-05-25T09:45:32;97341.75;;;16.00;63.18
71917;BME280;59793;46.506;6.674;2023-05-25T09:47:58;97349.97;;;15.81;63.25
71917;BME280;59793;46.506;6.674;2023-05-25T09:50:26;97333.28;;;16.39;63.74
71917;BME280;59793;46.506;6.674;2023-05-25T09:52:57;97361.78;;;17.18;60.58
71917;BME280;59793;46.506;6.674;2023-05-25T09:55:23;97338.53;;;17.01;60.86
71917;BME280;59793;46.506;6.674;2023-05-25T09:57:52;97276.34;;;16.47;61.85
71917;BME280;59793;46.506;6.674;2023-05-25T10:00:19;97316.09;;;16.99;62.82
71917;BME280;59793;46.506;6.674;2023-05-25T10:02:45;97333.25;;;17.15;61.35
71917;BME280;59793;46.506;6.674;2023-05-25T10:05:11;97308.88;;;17.13;60.25
71917;BME280;59793;46.506;6.674;2023-05-25T10:07:37;97342.81;;;17.49;59.48
71917;BME280;59793;46.506;6.674;2023-05-25T10:10:05;97337.91;;;17.61;59.04
71917;BME280;59793;46.506;6.674;2023-05-25T10:12:32;97388.56;;;18.19;58.44
71917;BME280;59793;46.506;6.674;2023-05-25T10:15:02;97387.06;;;18.10;57.82
71917;BME280;59793;46.506;6.674;2023-05-25T10:17:30;97339.09;;;17.82;57.62
71917;BME280;59793;46.506;6.674;2023-05-25T10:19:58;97376.38;;;18.35;57.82
71917;BME280;59793;46.506;6.674;2023-05-25T10:22:30;97368.78;;;18.02;58.18
71917;BME280;59793;46.506;6.674;2023-05-25T10:25:03;97388.22;;;18.09;58.14
71917;BME280;59793;46.506;6.674;2023-05-25T10:27:46;97361.88;;;17.61;58.15
71917;BME280;59793;46.506;6.674;2023-05-25T10:30:13;97389.72;;;18.00;57.98
71917;BME280;59793;46.506;6.674;2023-05-25T10:32:38;97386.63;;;18.44;56.26
71917;BME280;59793;46.506;6.674;2023-05-25T10:35:05;97343.63;;;18.21;55.64
71917;BME280;59793;46.506;6.674;2023-05-25T10:37:33;97391.56;;;18.78;52.73
71917;BME280;59793;46.506;6.674;2023-05-25T10:40:00;97395.38;;;18.62;52.40
71917;BME280;59793;46.506;6.674;2023-05-25T10:42:27;97388.50;;;18.72;53.55
71917;BME280;59793;46.506;6.674;2023-05-25T10:44:54;97387.00;;;18.75;53.64
71917;BME280;59793;46.506;6.674;2023-05-25T10:47:20;97361.47;;;18.59;53.49
71917;BME280;59793;46.506;6.674;2023-05-25T10:49:56;97342.06;;;18.41;54.39
71917;BME280;59793;46.506;6.674;2023-05-25T10:52:29;97366.41;;;18.64;53.79
71917;BME280;59793;46.506;6.674;2023-05-25T10:54:59;97393.50;;;18.49;53.01
71917;BME280;59793;46.506;6.674;2023-05-25T10:57:31;97361.91;;;18.15;55.42
71917;BME280;59793;46.506;6.674;2023-05-25T11:00:03;97395.06;;;18.10;58.32
71917;BME280;59793;46.506;6.674;2023-05-25T11:02:48;97363.41;;;18.27;54.96
71917;BME280;59793;46.506;6.674;2023-05-25T11:05:39;97391.16;;;18.65;53.92
71917;BME280;59793;46.506;6.674;2023-05-25T11:08:07;97409.84;;;18.79;53.37
71917;BME280;59793;46.506;6.674;2023-05-25T11:13:36;97424.72;;;18.84;53.80
71917;BME280;59793;46.506;6.674;2023-05-25T11:18:57;97434.03;;;19.42;52.01
71917;BME280;59793;46.506;6.674;2023-05-25T11:24:12;97413.72;;;19.66;51.04
71917;BME280;59793;46.506;6.674;2023-05-25T11:26:52;97412.31;;;20.03;49.59
71917;BME280;59793;46.506;6.674;2023-05-25T11:29:19;97419.97;;;20.49;50.17
71917;BME280;59793;46.506;6.674;2023-05-25T11:31:55;97405.81;;;20.45;48.93
71917;BME280;59793;46.506;6.674;2023-05-25T11:34:24;97408.28;;;19.80;50.03
71917;BME280;59793;46.506;6.674;2023-05-25T11:36:54;97423.00;;;20.03;49.61
71917;BME280;59793;46.506;6.674;2023-05-25T11:39:21;97404.31;;;19.33;51.35
71917;BME280;59793;46.506;6.674;2023-05-25T11:41:53;97429.31;;;19.75;50.30
71917;BME280;59793;46.506;6.674;2023-05-25T11:44:30;97407.47;;;19.87;50.65
71917;BME280;59793;46.506;6.674;2023-05-25T11:47:00;97420.50;;;20.30;49.07
71917;BME280;59793;46.506;6.674;2023-05-25T11:49:26;97399.88;;;19.75;51.30
71917;BME280;59793;46.506;6.674;2023-05-25T11:51:52;97364.72;;;19.80;51.06
71917;BME280;59793;46.506;6.674;2023-05-25T11:54:22;97426.47;;;20.45;50.15
71917;BME280;59793;46.506;6.674;2023-05-25T11:56:48;97410.25;;;19.69;51.11
71917;BME280;59793;46.506;6.674;2023-05-25T11:59:13;97431.09;;;19.92;51.43
71917;BME280;59793;46.506;6.674;2023-05-25T12:01:39;97431.47;;;19.98;51.06
71917;BME280;59793;46.506;6.674;2023-05-25T12:04:09;97435.09;;;21.05;49.63
71917;BME280;59793;46.506;6.674;2023-05-25T12:06:35;97379.03;;;20.52;49.23
71917;BME280;59793;46.506;6.674;2023-05-25T12:09:01;97392.00;;;20.58;50.15
71917;BME280;59793;46.506;6.674;2023-05-25T12:11:34;97424.38;;;21.66;48.22
71917;BME280;59793;46.506;6.674;2023-05-25T12:14:03;97416.38;;;21.35;49.46
71917;BME280;59793;46.506;6.674;2023-05-25T12:16:30;97430.25;;;20.55;50.25
71917;BME280;59793;46.506;6.674;2023-05-25T12:18:56;97411.75;;;20.71;50.26
71917;BME280;59793;46.506;6.674;2023-05-25T12:21:22;97419.75;;;20.74;51.18
71917;BME280;59793;46.506;6.674;2023-05-25T12:23:48;97409.63;;;20.51;51.17
71917;BME280;59793;46.506;6.674;2023-05-25T12:26:16;97389.34;;;20.54;51.26
71917;BME280;59793;46.506;6.674;2023-05-25T12:31:36;97419.97;;;20.01;54.46
71917;BME280;59793;46.506;6.674;2023-05-25T12:34:13;97400.69;;;20.20;53.50
71917;BME280;59793;46.506;6.674;2023-05-25T12:39:07;97427.41;;;20.27;54.73
71917;BME280;59793;46.506;6.674;2023-05-25T12:47:18;97408.56;;;20.38;55.42
71917;BME280;59793;46.506;6.674;2023-05-25T12:52:36;97402.72;;;20.09;54.10
71917;BME280;59793;46.506;6.674;2023-05-25T12:55:37;97428.47;;;19.85;56.39
71917;BME280;59793;46.506;6.674;2023-05-25T12:58:06;97432.44;;;20.63;54.15
71917;BME280;59793;46.506;6.674;2023-05-25T13:00:34;97423.81;;;19.96;55.81
71917;BME280;59793;46.506;6.674;2023-05-25T13:03:02;97419.09;;;19.55;56.62
71917;BME280;59793;46.506;6.674;2023-05-25T13:05:29;97435.53;;;19.47;57.21
71917;BME280;59793;46.506;6.674;2023-05-25T13:07:56;97431.72;;;19.51;54.97
71917;BME280;59793;46.506;6.674;2023-05-25T13:10:22;97411.41;;;19.68;55.39
71917;BME280;59793;46.506;6.674;2023-05-25T13:12:48;97404.00;;;19.90;55.20
71917;BME280;59793;46.506;6.674;2023-05-25T13:15:17;97414.22;;;20.51;53.97
71917;BME280;59793;46.506;6.674;2023-05-25T13:17:45;97417.25;;;21.25;51.35
71917;BME280;59793;46.506;6.674;2023-05-25T13:20:11;97420.50;;;20.75;51.19
71917;BME280;59793;46.506;6.674;2023-05-25T13:22:39;97417.91;;;20.68;51.25
71917;BME280;59793;46.506;6.674;2023-05-25T13:25:06;97436.00;;;20.04;52.50